ADDS METAR Data INFO
IDs: Format: Raw Decoded Include TAF

Data at: 0846 UTC 27 Jun 2017

KPRX 270756Z AUTO 10005KT 10SM 21/18 A3005 RMK AO2 SLP184 T02060178 $
KPRX 270656Z AUTO 11006KT 10SM 21/18 A3006 RMK AO2 SLP186 T02060178 $
KPRX 270556Z AUTO 09005KT 10SM 21/18 A3007 RMK AO2 SLP190 T02110178 10278 20211 50005 $
KPRX 270456Z AUTO 08006KT 10SM 22/18 A3007 RMK AO2 SLP191 T02170183 402890189 $
KPRX 270356Z AUTO 09005KT 10SM 23/18 A3007 RMK AO2 SLP190 T02280183 $
KPRX 270256Z AUTO 07005KT 10SM 23/19 A3005 RMK AO2 SLP184 T02330194 53003 $
KPRX 270156Z AUTO 08003KT 10SM 24/19 A3005 RMK AO2 SLP184 T02440194 $
KPRX 270056Z AUTO 10004KT 10SM 27/20 A3005 RMK AO2 SLP181 T02670200 $
KPRX 262356Z AUTO 08005KT 10SM 27/19 A3004 RMK AO2 SLP182 T02720194 10289 20272 56015 $
KPRX 262256Z AUTO 00000KT 10SM 28/19 A3005 RMK AO2 SLP183 T02830189 $
KPRX 262156Z AUTO 05003KT 10SM 28/19 A3006 RMK AO2 SLP188 T02780194 $
KPRX 262056Z AUTO 13005KT 10SM 28/19 A3009 RMK AO2 SLP196 T02830194 56025 $
KPRX 261956Z AUTO 16004KT 10SM 28/18 A3011 RMK AO2 SLP205 T02780183 $
KPRX 261856Z AUTO 13007KT 10SM 28/18 A3014 RMK AO2 SLP212 T02780178 $
KPRX 261756Z AUTO VRB06KT 10SM 27/17 A3017 RMK AO2 SLP222 T02720172 10272 20194 56015 $
KPRX 261656Z AUTO 11010KT 10SM 27/17 A3018 RMK AO2 SLP228 T02670172 $
KPRX 261556Z AUTO 14013KT 10SM 26/16 A3019 RMK AO2 SLP231 T02610161 $
KPRX 261456Z AUTO 15010KT 10SM 25/16 A3021 RMK AO2 SLP237 T02500161 51012 $
KPRX 261356Z AUTO 10006KT 10SM 22/18 A3021 RMK AO2 SLP237 T02220183 $
KPRX 261256Z AUTO 08006KT 10SM 22/19 A3019 RMK AO2 SLP232 T02170189 $
KPRX 261156Z AUTO 09004KT 10SM 19/18 A3017 RMK AO2 SLP225 T01940178 10217 20189 58002 $
KPRX 261056Z AUTO 10004KT 10SM 19/18 A3018 RMK AO2 SLP225 T01940178 $
KPRX 260956Z AUTO 06005KT 10SM 19/18 A3018 RMK AO2 SLP227 T01940178 $
KPRX 260856Z AUTO 12003KT 10SM 21/18 A3018 RMK AO2 SLP226 T02060178 58005 $
KPRX 260756Z AUTO 03004KT 10SM 20/18 A3020 RMK AO2 SLP232 T02000178 $
KPRX 260656Z AUTO 12005KT 10SM 21/17 A3019 RMK AO2 SLP230 T02060172 $
KPRX 260556Z AUTO 00000KT 10SM 22/18 A3020 RMK AO2 SLP232 T02170178 10283 20211 51007 $
KPRX 260456Z AUTO 14006KT 10SM 21/17 A3018 RMK AO2 SLP228 T02110172 402940194 $
KPRX 260356Z AUTO 11005KT 10SM 22/17 A3019 RMK AO2 SLP229 T02220172 $
KPRX 260256Z AUTO 08006KT 10SM 23/18 A3017 RMK AO2 SLP226 T02280178 53011 $
KPRX 260156Z AUTO 05004KT 10SM 24/18 A3016 RMK AO2 SLP219 T02440183 $
KPRX 260056Z AUTO 09004KT 10SM 27/18 A3015 RMK AO2 SLP215 T02670183 $
KPRX 252356Z AUTO 09007KT 10SM 28/16 A3014 RMK AO2 SLP214 T02780161 10294 20278 56017 $
KPRX 252256Z AUTO 06007KT 10SM 29/17 A3015 RMK AO2 SLP218 T02890167 $
KPRX 252156Z AUTO 11006KT 10SM 29/17 A3017 RMK AO2 SLP224 T02940167 $
KPRX 252056Z AUTO 08011G14KT 10SM 29/17 A3019 RMK AO2 SLP231 T02940167 56019 $


Page loaded:  08:46 UTC  |   01:46 AM Pacific  |   02:46 AM Mountain  |   03:46 AM Central  |   04:46 AM Eastern

 

ADVISORIES

FORECASTS

FORECASTS

OBSERVATIONS

USER TOOLS

ABOUT US